GJOHN KSEA-CYZT
Flight info
| Callsign | GJOHN |
|---|---|
| Flight time | 2h 35m |
| Altitude | 8500 |
| Route | SEATTLE TACOMA INTL BOEING FIELD LAKE UNION MAGNUSON PARK LYNNWOOD PAINE LANGLEY CAMANO OAK HARBOR ROCHE HARBOR GANGES LADYSMITH LANTSVILLE COMOX |
| Aircraft | C182/L-VGDW/C |
Departure
| Time | 2026-04-26 19:30 |
|---|---|
| Airport | Seattle–Tacoma International Airport (KSEA) |
Arrival
| Time | 2026-04-26 22:05 |
|---|---|
| Airport | Port Hardy Airport (CYZT) |
| Time | Latitude | Longitude | Altitude | Speed | Heading |
|---|---|---|---|---|---|
| 2026-04-26 18:58 | 47.43960 | -122.31544 | 437 ft | 0 kts | 355° |
| 2026-04-26 19:00 | 47.43961 | -122.31544 | 437 ft | 0 kts | 355° |
| 2026-04-26 19:01 | 47.43980 | -122.31538 | 437 ft | 0 kts | 20° |
| 2026-04-26 19:01 | 47.43981 | -122.31538 | 437 ft | 0 kts | 20° |
| 2026-04-26 19:04 | 47.43982 | -122.31538 | 437 ft | 0 kts | 20° |
| 2026-04-26 19:05 | 47.43982 | -122.31537 | 437 ft | 0 kts | 20° |
| 2026-04-26 19:07 | 47.43983 | -122.31537 | 437 ft | 0 kts | 20° |
| 2026-04-26 19:10 | 47.43984 | -122.31537 | 437 ft | 0 kts | 20° |
| 2026-04-26 19:11 | 47.43984 | -122.31536 | 437 ft | 0 kts | 20° |
| 2026-04-26 19:16 | 47.43985 | -122.31536 | 437 ft | 0 kts | 20° |
| 2026-04-26 19:19 | 47.43990 | -122.31537 | 437 ft | 0 kts | 308° |
| 2026-04-26 19:19 | 47.43990 | -122.31538 | 437 ft | 0 kts | 308° |
| 2026-04-26 19:20 | 47.43991 | -122.31538 | 437 ft | 0 kts | 308° |
| 2026-04-26 19:21 | 47.43991 | -122.31539 | 437 ft | 0 kts | 308° |
| 2026-04-26 19:27 | 47.43991 | -122.31540 | 437 ft | 0 kts | 308° |
| 2026-04-26 19:28 | 47.43995 | -122.31525 | 437 ft | 6 kts | 130° |
| 2026-04-26 19:28 | 47.43951 | -122.31468 | 437 ft | 16 kts | 144° |
| 2026-04-26 19:28 | 47.43832 | -122.31352 | 437 ft | 20 kts | 135° |
| 2026-04-26 19:28 | 47.43809 | -122.31179 | 437 ft | 17 kts | 69° |
| 2026-04-26 19:29 | 47.43943 | -122.31129 | 437 ft | 29 kts | 359° |
| 2026-04-26 19:29 | 47.44325 | -122.31129 | 460 ft | 75 kts | 360° |
| 2026-04-26 19:29 | 47.44926 | -122.31122 | 578 ft | 97 kts | 355° |
| 2026-04-26 19:29 | 47.45638 | -122.31112 | 784 ft | 106 kts | 360° |
| 2026-04-26 19:30 | 47.46374 | -122.31047 | 1022 ft | 110 kts | 1° |
| 2026-04-26 19:30 | 47.47167 | -122.30933 | 1039 ft | 116 kts | 6° |
| 2026-04-26 19:30 | 47.47946 | -122.30502 | 1035 ft | 120 kts | 28° |
| 2026-04-26 19:30 | 47.48425 | -122.30077 | 1044 ft | 121 kts | 31° |
| 2026-04-26 19:31 | 47.49350 | -122.29187 | 1034 ft | 118 kts | 31° |
| 2026-04-26 19:31 | 47.50103 | -122.28743 | 1019 ft | 116 kts | 11° |
| 2026-04-26 19:31 | 47.50897 | -122.28698 | 1017 ft | 114 kts | 351° |
| 2026-04-26 19:31 | 47.51633 | -122.29085 | 1029 ft | 111 kts | 332° |
| 2026-04-26 19:32 | 47.52353 | -122.29480 | 1011 ft | 113 kts | 340° |
| 2026-04-26 19:32 | 47.53070 | -122.29906 | 1035 ft | 110 kts | 335° |
| 2026-04-26 19:32 | 47.53751 | -122.30424 | 1011 ft | 112 kts | 332° |
| 2026-04-26 19:32 | 47.54442 | -122.30953 | 1021 ft | 109 kts | 333° |
| 2026-04-26 19:33 | 47.55131 | -122.31431 | 1268 ft | 110 kts | 338° |
| 2026-04-26 19:33 | 47.55872 | -122.31787 | 1510 ft | 112 kts | 344° |
| 2026-04-26 19:33 | 47.56621 | -122.32056 | 1744 ft | 113 kts | 347° |
| 2026-04-26 19:33 | 47.57335 | -122.32278 | 1959 ft | 114 kts | 348° |
| 2026-04-26 19:34 | 47.58112 | -122.32503 | 2190 ft | 114 kts | 348° |
| 2026-04-26 19:34 | 47.58895 | -122.32723 | 2427 ft | 117 kts | 348° |
| 2026-04-26 19:34 | 47.59713 | -122.32951 | 2654 ft | 122 kts | 348° |
| 2026-04-26 19:34 | 47.60555 | -122.33184 | 2881 ft | 124 kts | 348° |
| 2026-04-26 19:35 | 47.61407 | -122.33419 | 3108 ft | 126 kts | 348° |
| 2026-04-26 19:35 | 47.62224 | -122.33645 | 3318 ft | 124 kts | 348° |
| 2026-04-26 19:35 | 47.62617 | -122.33753 | 3424 ft | 123 kts | 348° |
| 2026-04-26 19:35 | 47.62912 | -122.33834 | 3503 ft | 121 kts | 348° |
| 2026-04-26 19:36 | 47.63732 | -122.34058 | 3727 ft | 119 kts | 349° |
| 2026-04-26 19:36 | 47.64011 | -122.34077 | 3798 ft | 120 kts | 1° |
| 2026-04-26 19:36 | 47.65121 | -122.32795 | 4167 ft | 131 kts | 53° |
| 2026-04-26 19:36 | 47.65634 | -122.31662 | 4399 ft | 133 kts | 53° |
| 2026-04-26 19:37 | 47.66172 | -122.30531 | 4649 ft | 132 kts | 51° |
| 2026-04-26 19:37 | 47.66702 | -122.29461 | 4888 ft | 124 kts | 50° |
| 2026-04-26 19:37 | 47.67205 | -122.28468 | 5135 ft | 117 kts | 49° |
| 2026-04-26 19:37 | 47.67688 | -122.27525 | 5379 ft | 113 kts | 49° |
| 2026-04-26 19:38 | 47.68154 | -122.26617 | 5622 ft | 109 kts | 47° |
| 2026-04-26 19:38 | 47.68688 | -122.25867 | 5858 ft | 107 kts | 18° |
| 2026-04-26 19:38 | 47.69415 | -122.25841 | 6111 ft | 106 kts | 348° |
| 2026-04-26 19:38 | 47.70146 | -122.26022 | 6372 ft | 107 kts | 348° |
| 2026-04-26 19:39 | 47.70889 | -122.26184 | 6630 ft | 108 kts | 349° |
| 2026-04-26 19:39 | 47.71625 | -122.26328 | 6874 ft | 103 kts | 349° |
| 2026-04-26 19:39 | 47.72312 | -122.26457 | 7121 ft | 96 kts | 348° |
| 2026-04-26 19:39 | 47.72953 | -122.26576 | 7361 ft | 90 kts | 348° |
| 2026-04-26 19:40 | 47.73565 | -122.26689 | 7600 ft | 85 kts | 347° |
| 2026-04-26 19:40 | 47.74150 | -122.26797 | 7794 ft | 85 kts | 347° |
| 2026-04-26 19:40 | 47.74735 | -122.26905 | 7985 ft | 85 kts | 347° |
| 2026-04-26 19:40 | 47.75314 | -122.27010 | 8179 ft | 83 kts | 347° |
| 2026-04-26 19:41 | 47.75692 | -122.27078 | 8311 ft | 82 kts | 347° |
| 2026-04-26 19:41 | 47.76465 | -122.27223 | 8493 ft | 94 kts | 348° |
| 2026-04-26 19:41 | 47.76923 | -122.27309 | 8508 ft | 106 kts | 349° |
| 2026-04-26 19:41 | 47.77435 | -122.27402 | 8511 ft | 112 kts | 350° |
| 2026-04-26 19:42 | 47.78492 | -122.27590 | 8508 ft | 117 kts | 350° |
| 2026-04-26 19:42 | 47.79296 | -122.27734 | 8511 ft | 120 kts | 350° |
| 2026-04-26 19:42 | 47.80151 | -122.27890 | 8506 ft | 125 kts | 350° |
| 2026-04-26 19:42 | 47.81019 | -122.28048 | 8505 ft | 127 kts | 350° |
| 2026-04-26 19:43 | 47.81899 | -122.28208 | 8505 ft | 128 kts | 350° |
| 2026-04-26 19:43 | 47.82786 | -122.28345 | 8497 ft | 126 kts | 353° |
| 2026-04-26 19:43 | 47.83643 | -122.28400 | 8502 ft | 122 kts | 354° |
| 2026-04-26 19:43 | 47.84478 | -122.28429 | 8502 ft | 119 kts | 355° |
| 2026-04-26 19:44 | 47.85296 | -122.28448 | 8502 ft | 117 kts | 355° |
| 2026-04-26 19:44 | 47.86108 | -122.28464 | 8510 ft | 119 kts | 355° |
| 2026-04-26 19:44 | 47.86954 | -122.28481 | 8502 ft | 124 kts | 355° |
| 2026-04-26 19:44 | 47.87828 | -122.28495 | 8503 ft | 127 kts | 355° |
| 2026-04-26 19:45 | 47.88714 | -122.28509 | 8504 ft | 128 kts | 355° |
| 2026-04-26 19:45 | 47.89606 | -122.28522 | 8503 ft | 127 kts | 355° |
| 2026-04-26 19:45 | 47.90493 | -122.28535 | 8504 ft | 126 kts | 355° |
| 2026-04-26 19:45 | 47.91365 | -122.28558 | 8503 ft | 125 kts | 352° |
| 2026-04-26 19:46 | 47.92158 | -122.28998 | 8503 ft | 122 kts | 329° |
| 2026-04-26 19:46 | 47.92865 | -122.29674 | 8500 ft | 119 kts | 325° |
| 2026-04-26 19:46 | 47.93535 | -122.30367 | 8503 ft | 116 kts | 324° |
| 2026-04-26 19:46 | 47.94182 | -122.31055 | 8503 ft | 114 kts | 323° |
| 2026-04-26 19:47 | 47.94819 | -122.31739 | 8503 ft | 112 kts | 323° |
| 2026-04-26 19:47 | 47.95237 | -122.32191 | 8502 ft | 112 kts | 323° |
| 2026-04-26 19:47 | 47.96074 | -122.33097 | 8502 ft | 111 kts | 323° |
| 2026-04-26 19:47 | 47.96695 | -122.33771 | 8502 ft | 110 kts | 323° |
| 2026-04-26 19:48 | 47.97314 | -122.34443 | 8501 ft | 110 kts | 323° |
| 2026-04-26 19:48 | 47.97931 | -122.35113 | 8501 ft | 110 kts | 323° |
| 2026-04-26 19:48 | 47.98546 | -122.35783 | 8501 ft | 110 kts | 323° |
| 2026-04-26 19:48 | 47.99163 | -122.36452 | 8501 ft | 110 kts | 323° |
| 2026-04-26 19:49 | 47.99785 | -122.37129 | 8501 ft | 110 kts | 323° |
| 2026-04-26 19:49 | 48.00399 | -122.37798 | 8501 ft | 110 kts | 323° |
| 2026-04-26 19:49 | 48.01014 | -122.38467 | 8500 ft | 110 kts | 323° |
| 2026-04-26 19:49 | 48.01630 | -122.39138 | 8500 ft | 110 kts | 323° |
| 2026-04-26 19:50 | 48.02248 | -122.39810 | 8500 ft | 110 kts | 323° |
| 2026-04-26 19:50 | 48.02867 | -122.40484 | 8500 ft | 110 kts | 323° |
| 2026-04-26 19:50 | 48.03488 | -122.41152 | 8499 ft | 110 kts | 326° |
| 2026-04-26 19:50 | 48.04149 | -122.41730 | 8499 ft | 111 kts | 330° |
| 2026-04-26 19:51 | 48.04826 | -122.42273 | 8499 ft | 111 kts | 331° |
| 2026-04-26 19:51 | 48.05507 | -122.42809 | 8499 ft | 111 kts | 331° |
| 2026-04-26 19:51 | 48.06188 | -122.43340 | 8497 ft | 111 kts | 331° |
| 2026-04-26 19:51 | 48.06871 | -122.43872 | 8496 ft | 111 kts | 331° |
| 2026-04-26 19:52 | 48.07563 | -122.44409 | 8496 ft | 111 kts | 331° |
| 2026-04-26 19:52 | 48.08247 | -122.44939 | 8496 ft | 111 kts | 331° |
| 2026-04-26 19:52 | 48.08930 | -122.45469 | 8496 ft | 111 kts | 331° |
| 2026-04-26 19:52 | 48.09612 | -122.45998 | 8496 ft | 111 kts | 331° |
| 2026-04-26 19:53 | 48.10296 | -122.46529 | 8495 ft | 111 kts | 331° |
| 2026-04-26 19:53 | 48.10979 | -122.47059 | 8495 ft | 111 kts | 331° |
| 2026-04-26 19:53 | 48.11662 | -122.47589 | 8495 ft | 111 kts | 331° |
| 2026-04-26 19:53 | 48.12344 | -122.48118 | 8495 ft | 111 kts | 331° |
| 2026-04-26 19:54 | 48.13028 | -122.48650 | 8495 ft | 111 kts | 331° |
| 2026-04-26 19:54 | 48.13710 | -122.49180 | 8495 ft | 111 kts | 331° |
| 2026-04-26 19:54 | 48.14392 | -122.49710 | 8494 ft | 111 kts | 331° |
| 2026-04-26 19:54 | 48.15075 | -122.50241 | 8495 ft | 111 kts | 331° |
| 2026-04-26 19:55 | 48.15758 | -122.50772 | 8494 ft | 111 kts | 331° |
| 2026-04-26 19:55 | 48.16450 | -122.51310 | 8494 ft | 111 kts | 331° |
| 2026-04-26 19:55 | 48.17132 | -122.51841 | 8494 ft | 111 kts | 331° |
| 2026-04-26 19:55 | 48.17814 | -122.52372 | 8494 ft | 111 kts | 331° |
| 2026-04-26 19:56 | 48.18496 | -122.52903 | 8494 ft | 111 kts | 331° |
| 2026-04-26 19:56 | 48.19180 | -122.53436 | 8494 ft | 111 kts | 331° |
| 2026-04-26 19:56 | 48.19861 | -122.53966 | 8494 ft | 111 kts | 331° |
| 2026-04-26 19:56 | 48.20544 | -122.54498 | 8496 ft | 111 kts | 331° |
| 2026-04-26 19:57 | 48.21226 | -122.55030 | 8497 ft | 111 kts | 331° |
| 2026-04-26 19:57 | 48.21911 | -122.55564 | 8497 ft | 111 kts | 332° |
| 2026-04-26 19:57 | 48.22597 | -122.56099 | 8497 ft | 111 kts | 332° |
| 2026-04-26 19:57 | 48.23282 | -122.56634 | 8498 ft | 111 kts | 332° |
| 2026-04-26 19:58 | 48.23970 | -122.57171 | 8499 ft | 111 kts | 332° |
| 2026-04-26 19:58 | 48.24656 | -122.57706 | 8500 ft | 111 kts | 332° |
| 2026-04-26 19:58 | 48.25350 | -122.58248 | 8501 ft | 111 kts | 331° |
| 2026-04-26 19:58 | 48.26036 | -122.58784 | 8499 ft | 111 kts | 332° |
| 2026-04-26 19:59 | 48.26722 | -122.59320 | 8502 ft | 111 kts | 332° |
| 2026-04-26 19:59 | 48.27406 | -122.59855 | 8505 ft | 111 kts | 331° |
| 2026-04-26 19:59 | 48.28090 | -122.60389 | 8506 ft | 111 kts | 331° |
| 2026-04-26 19:59 | 48.28771 | -122.60922 | 8506 ft | 111 kts | 331° |
| 2026-04-26 20:00 | 48.29453 | -122.61456 | 8505 ft | 111 kts | 331° |
| 2026-04-26 20:00 | 48.30139 | -122.61992 | 8506 ft | 111 kts | 331° |
| 2026-04-26 20:00 | 48.30825 | -122.62529 | 8506 ft | 111 kts | 331° |
| 2026-04-26 20:00 | 48.31509 | -122.63065 | 8506 ft | 111 kts | 331° |
| 2026-04-26 20:01 | 48.32197 | -122.63603 | 8506 ft | 112 kts | 331° |
| 2026-04-26 20:01 | 48.32884 | -122.64141 | 8506 ft | 112 kts | 331° |
| 2026-04-26 20:01 | 48.33572 | -122.64680 | 8506 ft | 112 kts | 332° |
| 2026-04-26 20:01 | 48.34259 | -122.65218 | 8506 ft | 112 kts | 332° |
| 2026-04-26 20:02 | 48.34956 | -122.65763 | 8506 ft | 112 kts | 332° |
| 2026-04-26 20:02 | 48.35566 | -122.66472 | 8510 ft | 113 kts | 315° |
| 2026-04-26 20:02 | 48.36100 | -122.67365 | 8509 ft | 117 kts | 311° |
| 2026-04-26 20:02 | 48.36450 | -122.67986 | 8509 ft | 118 kts | 311° |
| 2026-04-26 20:03 | 48.37159 | -122.69268 | 8509 ft | 120 kts | 310° |
| 2026-04-26 20:03 | 48.37690 | -122.70240 | 8505 ft | 119 kts | 310° |
| 2026-04-26 20:03 | 48.38209 | -122.71191 | 8506 ft | 116 kts | 310° |
| 2026-04-26 20:03 | 48.38718 | -122.72126 | 8505 ft | 115 kts | 310° |
| 2026-04-26 20:04 | 48.39223 | -122.73053 | 8505 ft | 114 kts | 310° |
| 2026-04-26 20:04 | 48.39723 | -122.73974 | 8504 ft | 114 kts | 310° |
| 2026-04-26 20:04 | 48.40225 | -122.74897 | 8504 ft | 113 kts | 310° |
| 2026-04-26 20:04 | 48.40723 | -122.75815 | 8504 ft | 113 kts | 310° |
| 2026-04-26 20:05 | 48.41218 | -122.76727 | 8504 ft | 113 kts | 310° |
| 2026-04-26 20:05 | 48.41714 | -122.77642 | 8504 ft | 113 kts | 310° |
| 2026-04-26 20:05 | 48.42210 | -122.78556 | 8504 ft | 113 kts | 310° |
| 2026-04-26 20:05 | 48.42704 | -122.79468 | 8503 ft | 113 kts | 310° |
| 2026-04-26 20:06 | 48.43200 | -122.80383 | 8504 ft | 113 kts | 310° |
| 2026-04-26 20:06 | 48.43702 | -122.81309 | 8504 ft | 113 kts | 310° |
| 2026-04-26 20:06 | 48.44195 | -122.82220 | 8505 ft | 113 kts | 310° |
| 2026-04-26 20:06 | 48.44689 | -122.83134 | 8505 ft | 113 kts | 310° |
| 2026-04-26 20:07 | 48.45184 | -122.84048 | 8505 ft | 113 kts | 310° |
| 2026-04-26 20:07 | 48.45680 | -122.84964 | 8505 ft | 113 kts | 310° |
| 2026-04-26 20:07 | 48.46176 | -122.85883 | 8505 ft | 113 kts | 310° |
| 2026-04-26 20:07 | 48.46674 | -122.86803 | 8505 ft | 113 kts | 310° |
| 2026-04-26 20:08 | 48.47171 | -122.87724 | 8506 ft | 113 kts | 310° |
| 2026-04-26 20:08 | 48.47673 | -122.88653 | 8506 ft | 114 kts | 310° |
| 2026-04-26 20:08 | 48.48171 | -122.89575 | 8506 ft | 114 kts | 310° |
| 2026-04-26 20:08 | 48.48670 | -122.90499 | 8506 ft | 114 kts | 310° |
| 2026-04-26 20:09 | 48.49168 | -122.91422 | 8506 ft | 114 kts | 310° |
| 2026-04-26 20:09 | 48.49665 | -122.92344 | 8506 ft | 114 kts | 310° |
| 2026-04-26 20:09 | 48.50164 | -122.93270 | 8506 ft | 114 kts | 310° |
| 2026-04-26 20:09 | 48.50447 | -122.93794 | 8506 ft | 114 kts | 310° |
| 2026-04-26 20:10 | 48.50945 | -122.94718 | 8506 ft | 114 kts | 310° |
| 2026-04-26 20:10 | 48.51443 | -122.95643 | 8506 ft | 114 kts | 310° |
| 2026-04-26 20:10 | 48.51944 | -122.96573 | 8502 ft | 115 kts | 310° |
| 2026-04-26 20:10 | 48.52445 | -122.97504 | 8501 ft | 115 kts | 310° |
| 2026-04-26 20:11 | 48.52947 | -122.98436 | 8501 ft | 115 kts | 310° |
| 2026-04-26 20:11 | 48.53449 | -122.99369 | 8501 ft | 115 kts | 310° |
| 2026-04-26 20:11 | 48.53958 | -123.00315 | 8501 ft | 115 kts | 310° |
| 2026-04-26 20:12 | 48.54962 | -123.02183 | 8501 ft | 115 kts | 310° |
| 2026-04-26 20:12 | 48.55466 | -123.03120 | 8501 ft | 115 kts | 310° |
| 2026-04-26 20:12 | 48.55967 | -123.04053 | 8501 ft | 115 kts | 310° |
| 2026-04-26 20:12 | 48.56469 | -123.04989 | 8500 ft | 115 kts | 310° |
| 2026-04-26 20:13 | 48.56974 | -123.05928 | 8493 ft | 115 kts | 310° |
| 2026-04-26 20:13 | 48.57478 | -123.06867 | 8497 ft | 115 kts | 310° |
| 2026-04-26 20:13 | 48.57979 | -123.07801 | 8499 ft | 115 kts | 310° |
| 2026-04-26 20:13 | 48.58480 | -123.08736 | 8499 ft | 115 kts | 310° |
| 2026-04-26 20:14 | 48.58983 | -123.09673 | 8499 ft | 115 kts | 310° |
| 2026-04-26 20:14 | 48.59488 | -123.10614 | 8499 ft | 115 kts | 310° |
| 2026-04-26 20:14 | 48.59994 | -123.11557 | 8499 ft | 116 kts | 310° |
| 2026-04-26 20:14 | 48.60506 | -123.12511 | 8499 ft | 116 kts | 310° |
| 2026-04-26 20:15 | 48.61008 | -123.13441 | 8498 ft | 116 kts | 311° |
| 2026-04-26 20:15 | 48.61532 | -123.14383 | 8498 ft | 116 kts | 311° |
| 2026-04-26 20:15 | 48.62054 | -123.15306 | 8497 ft | 116 kts | 311° |
| 2026-04-26 20:15 | 48.62578 | -123.16227 | 8499 ft | 116 kts | 312° |
| 2026-04-26 20:16 | 48.63104 | -123.17149 | 8499 ft | 116 kts | 312° |
| 2026-04-26 20:16 | 48.63629 | -123.18069 | 8499 ft | 116 kts | 312° |
| 2026-04-26 20:16 | 48.64155 | -123.18991 | 8498 ft | 116 kts | 312° |
| 2026-04-26 20:16 | 48.64681 | -123.19911 | 8497 ft | 116 kts | 312° |
| 2026-04-26 20:17 | 48.65208 | -123.20835 | 8496 ft | 116 kts | 312° |
| 2026-04-26 20:17 | 48.65734 | -123.21757 | 8495 ft | 116 kts | 312° |
| 2026-04-26 20:17 | 48.66260 | -123.22678 | 8495 ft | 116 kts | 312° |
| 2026-04-26 20:17 | 48.66616 | -123.23302 | 8494 ft | 116 kts | 312° |
| 2026-04-26 20:18 | 48.67322 | -123.24541 | 8497 ft | 116 kts | 312° |
| 2026-04-26 20:18 | 48.67849 | -123.25466 | 8499 ft | 116 kts | 312° |
| 2026-04-26 20:18 | 48.68378 | -123.26394 | 8499 ft | 117 kts | 312° |
| 2026-04-26 20:18 | 48.68907 | -123.27322 | 8499 ft | 117 kts | 312° |
| 2026-04-26 20:19 | 48.69435 | -123.28250 | 8499 ft | 117 kts | 312° |
| 2026-04-26 20:19 | 48.69965 | -123.29181 | 8498 ft | 117 kts | 312° |
| 2026-04-26 20:19 | 48.70495 | -123.30113 | 8497 ft | 117 kts | 312° |
| 2026-04-26 20:19 | 48.71024 | -123.31044 | 8496 ft | 117 kts | 312° |
| 2026-04-26 20:20 | 48.71555 | -123.31977 | 8496 ft | 117 kts | 312° |
| 2026-04-26 20:20 | 48.72085 | -123.32909 | 8499 ft | 117 kts | 312° |
| 2026-04-26 20:20 | 48.72614 | -123.33841 | 8500 ft | 117 kts | 312° |
| 2026-04-26 20:20 | 48.73142 | -123.34770 | 8500 ft | 117 kts | 312° |
| 2026-04-26 20:21 | 48.73672 | -123.35703 | 8500 ft | 117 kts | 312° |
| 2026-04-26 20:21 | 48.74202 | -123.36637 | 8500 ft | 117 kts | 312° |
| 2026-04-26 20:21 | 48.74737 | -123.37581 | 8500 ft | 117 kts | 312° |
| 2026-04-26 20:21 | 48.75267 | -123.38516 | 8500 ft | 117 kts | 312° |
| 2026-04-26 20:22 | 48.75797 | -123.39449 | 8500 ft | 117 kts | 312° |
| 2026-04-26 20:22 | 48.76327 | -123.40384 | 8500 ft | 117 kts | 312° |
| 2026-04-26 20:22 | 48.76858 | -123.41322 | 8500 ft | 117 kts | 312° |
| 2026-04-26 20:22 | 48.77389 | -123.42260 | 8500 ft | 118 kts | 312° |
| 2026-04-26 20:23 | 48.77922 | -123.43201 | 8500 ft | 118 kts | 311° |
| 2026-04-26 20:23 | 48.78455 | -123.44144 | 8500 ft | 118 kts | 312° |
| 2026-04-26 20:23 | 48.78988 | -123.45085 | 8500 ft | 118 kts | 312° |
| 2026-04-26 20:23 | 48.79522 | -123.46030 | 8500 ft | 118 kts | 312° |
| 2026-04-26 20:24 | 48.80056 | -123.46973 | 8501 ft | 118 kts | 312° |
| 2026-04-26 20:24 | 48.80588 | -123.47915 | 8501 ft | 118 kts | 312° |
| 2026-04-26 20:24 | 48.81122 | -123.48860 | 8501 ft | 118 kts | 312° |
| 2026-04-26 20:24 | 48.81656 | -123.49805 | 8501 ft | 118 kts | 312° |
| 2026-04-26 20:25 | 48.82196 | -123.50763 | 8501 ft | 118 kts | 312° |
| 2026-04-26 20:25 | 48.82549 | -123.51388 | 8501 ft | 118 kts | 312° |
| 2026-04-26 20:25 | 48.83263 | -123.52653 | 8501 ft | 118 kts | 312° |
| 2026-04-26 20:25 | 48.83795 | -123.53597 | 8501 ft | 118 kts | 312° |
| 2026-04-26 20:26 | 48.84329 | -123.54544 | 8501 ft | 118 kts | 312° |
| 2026-04-26 20:26 | 48.84863 | -123.55492 | 8501 ft | 118 kts | 312° |
| 2026-04-26 20:26 | 48.85396 | -123.56438 | 8501 ft | 118 kts | 312° |
| 2026-04-26 20:26 | 48.85930 | -123.57386 | 8501 ft | 118 kts | 312° |
| 2026-04-26 20:27 | 48.86463 | -123.58332 | 8501 ft | 118 kts | 312° |
| 2026-04-26 20:27 | 48.86999 | -123.59284 | 8501 ft | 118 kts | 312° |
| 2026-04-26 20:27 | 48.87533 | -123.60233 | 8501 ft | 118 kts | 312° |
| 2026-04-26 20:27 | 48.88066 | -123.61182 | 8501 ft | 118 kts | 312° |
| 2026-04-26 20:28 | 48.88600 | -123.62131 | 8501 ft | 118 kts | 311° |
| 2026-04-26 20:28 | 48.89135 | -123.63083 | 8500 ft | 119 kts | 311° |
| 2026-04-26 20:28 | 48.89670 | -123.64035 | 8500 ft | 119 kts | 311° |
| 2026-04-26 20:28 | 48.90213 | -123.65002 | 8500 ft | 119 kts | 311° |
| 2026-04-26 20:29 | 48.90749 | -123.65958 | 8500 ft | 119 kts | 311° |
| 2026-04-26 20:29 | 48.91286 | -123.66914 | 8500 ft | 119 kts | 311° |
| 2026-04-26 20:29 | 48.91823 | -123.67872 | 8501 ft | 119 kts | 311° |
| 2026-04-26 20:29 | 48.92361 | -123.68830 | 8501 ft | 119 kts | 311° |
| 2026-04-26 20:30 | 48.92898 | -123.69787 | 8501 ft | 119 kts | 311° |
| 2026-04-26 20:30 | 48.93435 | -123.70746 | 8500 ft | 119 kts | 311° |
| 2026-04-26 20:30 | 48.93972 | -123.71705 | 8500 ft | 119 kts | 311° |
| 2026-04-26 20:30 | 48.94509 | -123.72662 | 8500 ft | 119 kts | 311° |
| 2026-04-26 20:31 | 48.95046 | -123.73622 | 8500 ft | 119 kts | 311° |
| 2026-04-26 20:31 | 48.95585 | -123.74583 | 8500 ft | 119 kts | 311° |
| 2026-04-26 20:31 | 48.96122 | -123.75543 | 8500 ft | 119 kts | 311° |
| 2026-04-26 20:31 | 48.96661 | -123.76504 | 8500 ft | 119 kts | 312° |
| 2026-04-26 20:32 | 48.97198 | -123.77463 | 8500 ft | 119 kts | 312° |
| 2026-04-26 20:32 | 48.97744 | -123.78436 | 8500 ft | 119 kts | 312° |
| 2026-04-26 20:32 | 48.98283 | -123.79373 | 8499 ft | 119 kts | 316° |
| 2026-04-26 20:32 | 48.98944 | -123.80151 | 8500 ft | 119 kts | 327° |
| 2026-04-26 20:33 | 48.99639 | -123.80833 | 8500 ft | 119 kts | 329° |
| 2026-04-26 20:33 | 49.00342 | -123.81492 | 8500 ft | 119 kts | 329° |
| 2026-04-26 20:33 | 49.01049 | -123.82142 | 8500 ft | 119 kts | 330° |
| 2026-04-26 20:33 | 49.01756 | -123.82788 | 8500 ft | 119 kts | 330° |
| 2026-04-26 20:34 | 49.02466 | -123.83433 | 8500 ft | 119 kts | 330° |
| 2026-04-26 20:34 | 49.03176 | -123.84078 | 8500 ft | 119 kts | 330° |
| 2026-04-26 20:34 | 49.03886 | -123.84723 | 8500 ft | 119 kts | 330° |
| 2026-04-26 20:34 | 49.04595 | -123.85366 | 8500 ft | 119 kts | 330° |
| 2026-04-26 20:35 | 49.05306 | -123.86010 | 8500 ft | 119 kts | 330° |
| 2026-04-26 20:35 | 49.06016 | -123.86655 | 8500 ft | 119 kts | 330° |
| 2026-04-26 20:35 | 49.06496 | -123.87090 | 8500 ft | 119 kts | 330° |
| 2026-04-26 20:35 | 49.07206 | -123.87735 | 8500 ft | 119 kts | 330° |
| 2026-04-26 20:36 | 49.07917 | -123.88380 | 8500 ft | 119 kts | 330° |
| 2026-04-26 20:36 | 49.08627 | -123.89026 | 8500 ft | 119 kts | 330° |
| 2026-04-26 20:36 | 49.09337 | -123.89671 | 8500 ft | 119 kts | 330° |
| 2026-04-26 20:36 | 49.10048 | -123.90317 | 8500 ft | 119 kts | 330° |
| 2026-04-26 20:37 | 49.10757 | -123.90962 | 8500 ft | 119 kts | 330° |
| 2026-04-26 20:37 | 49.11469 | -123.91609 | 8501 ft | 119 kts | 330° |
| 2026-04-26 20:37 | 49.12180 | -123.92256 | 8500 ft | 119 kts | 330° |
| 2026-04-26 20:37 | 49.12899 | -123.92911 | 8500 ft | 119 kts | 330° |
| 2026-04-26 20:38 | 49.13611 | -123.93559 | 8501 ft | 119 kts | 330° |
| 2026-04-26 20:38 | 49.14322 | -123.94206 | 8514 ft | 121 kts | 330° |
| 2026-04-26 20:38 | 49.15075 | -123.94892 | 8505 ft | 130 kts | 330° |
| 2026-04-26 20:38 | 49.15865 | -123.95615 | 8505 ft | 135 kts | 330° |
| 2026-04-26 20:39 | 49.16677 | -123.96357 | 8505 ft | 137 kts | 330° |
| 2026-04-26 20:39 | 49.17490 | -123.97101 | 8498 ft | 134 kts | 330° |
| 2026-04-26 20:39 | 49.18270 | -123.97813 | 8501 ft | 129 kts | 330° |
| 2026-04-26 20:39 | 49.19027 | -123.98502 | 8501 ft | 126 kts | 330° |
| 2026-04-26 20:40 | 49.19770 | -123.99178 | 8500 ft | 124 kts | 330° |
| 2026-04-26 20:40 | 49.20507 | -123.99849 | 8513 ft | 125 kts | 330° |
| 2026-04-26 20:40 | 49.21277 | -124.00550 | 8501 ft | 132 kts | 329° |
| 2026-04-26 20:40 | 49.22079 | -124.01282 | 8501 ft | 136 kts | 329° |
| 2026-04-26 20:41 | 49.22906 | -124.02036 | 8502 ft | 138 kts | 330° |
| 2026-04-26 20:41 | 49.23724 | -124.02778 | 8507 ft | 135 kts | 330° |
| 2026-04-26 20:41 | 49.24439 | -124.03726 | 8497 ft | 138 kts | 313° |
| 2026-04-26 20:41 | 49.25057 | -124.04856 | 8499 ft | 139 kts | 309° |
| 2026-04-26 20:42 | 49.25653 | -124.06019 | 8500 ft | 139 kts | 309° |
| 2026-04-26 20:42 | 49.26235 | -124.07175 | 8494 ft | 134 kts | 308° |
| 2026-04-26 20:42 | 49.26789 | -124.08282 | 8498 ft | 129 kts | 308° |
| 2026-04-26 20:42 | 49.27325 | -124.09355 | 8498 ft | 126 kts | 308° |
| 2026-04-26 20:43 | 49.27852 | -124.10409 | 8498 ft | 124 kts | 308° |
| 2026-04-26 20:43 | 49.28370 | -124.11449 | 8499 ft | 123 kts | 308° |
| 2026-04-26 20:43 | 49.28885 | -124.12485 | 8499 ft | 122 kts | 308° |
| 2026-04-26 20:43 | 49.29401 | -124.13523 | 8498 ft | 121 kts | 308° |
| 2026-04-26 20:44 | 49.29912 | -124.14552 | 8498 ft | 121 kts | 308° |
| 2026-04-26 20:44 | 49.30418 | -124.15574 | 8499 ft | 121 kts | 308° |
| 2026-04-26 20:44 | 49.30927 | -124.16600 | 8500 ft | 121 kts | 308° |
| 2026-04-26 20:44 | 49.31432 | -124.17621 | 8500 ft | 121 kts | 308° |
| 2026-04-26 20:45 | 49.31939 | -124.18645 | 8500 ft | 121 kts | 308° |
| 2026-04-26 20:45 | 49.32445 | -124.19669 | 8501 ft | 121 kts | 308° |
| 2026-04-26 20:45 | 49.32951 | -124.20691 | 8501 ft | 121 kts | 308° |
| 2026-04-26 20:45 | 49.33456 | -124.21713 | 8501 ft | 121 kts | 308° |
| 2026-04-26 20:46 | 49.33962 | -124.22737 | 8501 ft | 121 kts | 308° |
| 2026-04-26 20:46 | 49.34466 | -124.23759 | 8502 ft | 121 kts | 308° |
| 2026-04-26 20:46 | 49.34973 | -124.24785 | 8502 ft | 121 kts | 308° |
| 2026-04-26 20:46 | 49.35478 | -124.25809 | 8502 ft | 121 kts | 308° |
| 2026-04-26 20:47 | 49.35990 | -124.26847 | 8502 ft | 121 kts | 308° |
| 2026-04-26 20:47 | 49.36325 | -124.27526 | 8502 ft | 121 kts | 308° |
| 2026-04-26 20:47 | 49.37001 | -124.28898 | 8502 ft | 121 kts | 308° |
| 2026-04-26 20:47 | 49.37505 | -124.29922 | 8503 ft | 121 kts | 308° |
| 2026-04-26 20:48 | 49.38010 | -124.30948 | 8503 ft | 121 kts | 308° |
| 2026-04-26 20:48 | 49.38515 | -124.31974 | 8503 ft | 121 kts | 308° |
| 2026-04-26 20:48 | 49.39021 | -124.33001 | 8503 ft | 121 kts | 308° |
| 2026-04-26 20:48 | 49.39526 | -124.34028 | 8503 ft | 121 kts | 308° |
| 2026-04-26 20:49 | 49.40030 | -124.35053 | 8503 ft | 121 kts | 308° |
| 2026-04-26 20:49 | 49.40535 | -124.36081 | 8503 ft | 121 kts | 308° |
| 2026-04-26 20:49 | 49.41041 | -124.37110 | 8504 ft | 121 kts | 308° |
| 2026-04-26 20:49 | 49.41552 | -124.38151 | 8504 ft | 121 kts | 308° |
| 2026-04-26 20:50 | 49.42057 | -124.39180 | 8502 ft | 121 kts | 308° |
| 2026-04-26 20:50 | 49.42563 | -124.40210 | 8501 ft | 121 kts | 308° |
| 2026-04-26 20:50 | 49.43067 | -124.41239 | 8501 ft | 121 kts | 308° |
| 2026-04-26 20:50 | 49.43572 | -124.42268 | 8501 ft | 121 kts | 308° |
| 2026-04-26 20:51 | 49.44077 | -124.43299 | 8501 ft | 121 kts | 308° |
| 2026-04-26 20:51 | 49.44581 | -124.44328 | 8501 ft | 121 kts | 308° |
| 2026-04-26 20:51 | 49.45086 | -124.45357 | 8501 ft | 121 kts | 308° |
| 2026-04-26 20:51 | 49.45591 | -124.46388 | 8501 ft | 121 kts | 308° |
| 2026-04-26 20:52 | 49.46095 | -124.47418 | 8501 ft | 121 kts | 308° |
| 2026-04-26 20:52 | 49.46600 | -124.48450 | 8501 ft | 121 kts | 308° |
| 2026-04-26 20:52 | 49.47104 | -124.49482 | 8501 ft | 121 kts | 308° |
| 2026-04-26 20:52 | 49.47615 | -124.50528 | 8501 ft | 121 kts | 308° |
| 2026-04-26 20:53 | 49.48119 | -124.51557 | 8502 ft | 121 kts | 308° |
| 2026-04-26 20:53 | 49.48623 | -124.52589 | 8502 ft | 121 kts | 308° |
| 2026-04-26 20:53 | 49.49126 | -124.53621 | 8502 ft | 121 kts | 308° |
| 2026-04-26 20:53 | 49.49630 | -124.54653 | 8502 ft | 121 kts | 308° |
| 2026-04-26 20:54 | 49.50134 | -124.55685 | 8502 ft | 121 kts | 308° |
| 2026-04-26 20:54 | 49.50637 | -124.56717 | 8502 ft | 121 kts | 308° |
| 2026-04-26 20:54 | 49.51141 | -124.57750 | 8502 ft | 121 kts | 308° |
| 2026-04-26 20:54 | 49.51644 | -124.58783 | 8503 ft | 121 kts | 308° |
| 2026-04-26 20:55 | 49.52147 | -124.59815 | 8503 ft | 121 kts | 308° |
| 2026-04-26 20:55 | 49.52650 | -124.60849 | 8503 ft | 121 kts | 308° |
| 2026-04-26 20:55 | 49.53153 | -124.61882 | 8503 ft | 121 kts | 308° |
| 2026-04-26 20:55 | 49.53656 | -124.62916 | 8503 ft | 121 kts | 308° |
| 2026-04-26 20:56 | 49.54167 | -124.63964 | 8503 ft | 121 kts | 308° |
| 2026-04-26 20:56 | 49.54666 | -124.64992 | 8503 ft | 121 kts | 308° |
| 2026-04-26 20:56 | 49.55170 | -124.66028 | 8503 ft | 121 kts | 308° |
| 2026-04-26 20:56 | 49.55672 | -124.67062 | 8503 ft | 121 kts | 308° |
| 2026-04-26 20:57 | 49.56180 | -124.68107 | 8503 ft | 121 kts | 308° |
| 2026-04-26 20:57 | 49.56682 | -124.69141 | 8503 ft | 121 kts | 308° |
| 2026-04-26 20:57 | 49.57185 | -124.70179 | 8503 ft | 121 kts | 308° |
| 2026-04-26 20:57 | 49.57687 | -124.71213 | 8503 ft | 121 kts | 308° |
| 2026-04-26 20:58 | 49.58189 | -124.72247 | 8503 ft | 121 kts | 308° |
| 2026-04-26 20:58 | 49.58691 | -124.73283 | 8503 ft | 121 kts | 308° |
| 2026-04-26 20:58 | 49.59194 | -124.74321 | 8503 ft | 121 kts | 308° |
| 2026-04-26 20:58 | 49.59695 | -124.75355 | 8503 ft | 121 kts | 308° |
| 2026-04-26 20:59 | 49.60198 | -124.76393 | 8503 ft | 121 kts | 308° |
| 2026-04-26 20:59 | 49.60699 | -124.77429 | 8503 ft | 121 kts | 308° |
| 2026-04-26 20:59 | 49.61201 | -124.78465 | 8503 ft | 121 kts | 308° |
| 2026-04-26 20:59 | 49.61703 | -124.79503 | 8503 ft | 121 kts | 308° |
| 2026-04-26 21:00 | 49.62211 | -124.80554 | 8503 ft | 121 kts | 308° |
| 2026-04-26 21:00 | 49.62712 | -124.81590 | 8503 ft | 121 kts | 308° |
| 2026-04-26 21:00 | 49.63214 | -124.82629 | 8503 ft | 121 kts | 308° |
| 2026-04-26 21:00 | 49.63716 | -124.83667 | 8503 ft | 121 kts | 308° |
| 2026-04-26 21:01 | 49.64217 | -124.84705 | 8503 ft | 121 kts | 308° |
| 2026-04-26 21:01 | 49.64718 | -124.85742 | 8503 ft | 121 kts | 308° |
| 2026-04-26 21:01 | 49.65219 | -124.86779 | 8503 ft | 121 kts | 308° |
| 2026-04-26 21:01 | 49.65721 | -124.87818 | 8503 ft | 121 kts | 308° |
| 2026-04-26 21:02 | 49.66223 | -124.88857 | 8503 ft | 121 kts | 308° |
| 2026-04-26 21:02 | 49.66724 | -124.89894 | 8503 ft | 121 kts | 308° |
| 2026-04-26 21:02 | 49.67228 | -124.90935 | 8503 ft | 121 kts | 308° |
| 2026-04-26 21:02 | 49.67732 | -124.91975 | 8503 ft | 121 kts | 308° |
| 2026-04-26 21:03 | 49.68240 | -124.93016 | 8503 ft | 121 kts | 309° |
| 2026-04-26 21:03 | 49.68860 | -124.93881 | 8502 ft | 120 kts | 325° |
| 2026-04-26 21:03 | 49.69553 | -124.94600 | 8502 ft | 120 kts | 328° |
| 2026-04-26 21:03 | 49.70262 | -124.95284 | 8501 ft | 120 kts | 329° |
| 2026-04-26 21:04 | 49.70974 | -124.95953 | 8501 ft | 120 kts | 330° |
| 2026-04-26 21:04 | 49.71691 | -124.96618 | 8501 ft | 120 kts | 330° |
| 2026-04-26 21:04 | 49.72409 | -124.97279 | 8501 ft | 120 kts | 330° |
| 2026-04-26 21:04 | 49.73126 | -124.97937 | 8501 ft | 120 kts | 330° |
| 2026-04-26 21:05 | 49.73845 | -124.98596 | 8501 ft | 120 kts | 330° |
| 2026-04-26 21:05 | 49.74564 | -124.99255 | 8501 ft | 120 kts | 330° |
| 2026-04-26 21:05 | 49.75282 | -124.99913 | 8501 ft | 120 kts | 330° |
| 2026-04-26 21:05 | 49.76000 | -125.00571 | 8500 ft | 120 kts | 330° |
| 2026-04-26 21:06 | 49.76720 | -125.01231 | 8500 ft | 120 kts | 330° |
| 2026-04-26 21:06 | 49.77448 | -125.01899 | 8500 ft | 120 kts | 330° |
| 2026-04-26 21:06 | 49.78166 | -125.02558 | 8500 ft | 120 kts | 330° |
| 2026-04-26 21:06 | 49.78878 | -125.03211 | 8499 ft | 120 kts | 330° |
| 2026-04-26 21:07 | 49.79605 | -125.03879 | 8499 ft | 120 kts | 330° |
| 2026-04-26 21:07 | 49.80324 | -125.04539 | 8499 ft | 120 kts | 330° |
| 2026-04-26 21:07 | 49.81043 | -125.05199 | 8499 ft | 120 kts | 330° |
| 2026-04-26 21:07 | 49.81761 | -125.05859 | 8498 ft | 120 kts | 330° |
| 2026-04-26 21:08 | 49.82480 | -125.06520 | 8497 ft | 120 kts | 330° |
| 2026-04-26 21:08 | 49.83199 | -125.07181 | 8497 ft | 120 kts | 330° |
| 2026-04-26 21:08 | 49.83917 | -125.07842 | 8499 ft | 120 kts | 330° |
| 2026-04-26 21:08 | 49.84635 | -125.08502 | 8500 ft | 120 kts | 330° |
| 2026-04-26 21:09 | 49.85352 | -125.09162 | 8499 ft | 120 kts | 330° |
| 2026-04-26 21:09 | 49.86070 | -125.09823 | 8499 ft | 120 kts | 330° |
| 2026-04-26 21:09 | 49.86789 | -125.10485 | 8499 ft | 120 kts | 330° |
| 2026-04-26 21:09 | 49.87508 | -125.11148 | 8498 ft | 120 kts | 330° |
| 2026-04-26 21:10 | 49.88226 | -125.11810 | 8498 ft | 120 kts | 330° |
| 2026-04-26 21:10 | 49.88955 | -125.12481 | 8497 ft | 121 kts | 330° |
| 2026-04-26 21:10 | 49.89676 | -125.13147 | 8497 ft | 121 kts | 330° |
| 2026-04-26 21:10 | 49.90399 | -125.13813 | 8497 ft | 121 kts | 330° |
| 2026-04-26 21:11 | 49.91120 | -125.14479 | 8497 ft | 121 kts | 330° |
| 2026-04-26 21:11 | 49.91843 | -125.15147 | 8496 ft | 121 kts | 330° |
| 2026-04-26 21:11 | 49.92567 | -125.15815 | 8496 ft | 121 kts | 330° |
| 2026-04-26 21:11 | 49.93290 | -125.16483 | 8496 ft | 121 kts | 330° |
| 2026-04-26 21:12 | 49.94014 | -125.17152 | 8496 ft | 121 kts | 330° |
| 2026-04-26 21:12 | 49.94737 | -125.17820 | 8496 ft | 121 kts | 330° |
| 2026-04-26 21:12 | 49.95463 | -125.18491 | 8489 ft | 122 kts | 330° |
| 2026-04-26 21:12 | 49.96189 | -125.19162 | 8486 ft | 122 kts | 330° |
| 2026-04-26 21:13 | 49.96915 | -125.19834 | 8486 ft | 122 kts | 330° |
| 2026-04-26 21:13 | 49.97642 | -125.20505 | 8485 ft | 121 kts | 330° |
| 2026-04-26 21:13 | 49.98375 | -125.21182 | 8485 ft | 121 kts | 330° |
| 2026-04-26 21:13 | 49.99101 | -125.21853 | 8485 ft | 121 kts | 330° |
| 2026-04-26 21:14 | 49.99825 | -125.22521 | 8485 ft | 121 kts | 330° |
| 2026-04-26 21:14 | 50.00550 | -125.23191 | 8491 ft | 122 kts | 331° |
| 2026-04-26 21:14 | 50.01292 | -125.23873 | 8488 ft | 126 kts | 331° |
| 2026-04-26 21:14 | 50.02052 | -125.24566 | 8488 ft | 128 kts | 332° |
| 2026-04-26 21:15 | 50.02853 | -125.25183 | 8488 ft | 129 kts | 336° |
| 2026-04-26 21:15 | 50.03676 | -125.25746 | 8498 ft | 131 kts | 338° |
| 2026-04-26 21:15 | 50.04531 | -125.26306 | 8490 ft | 135 kts | 338° |
| 2026-04-26 21:15 | 50.05408 | -125.26870 | 8488 ft | 137 kts | 339° |
| 2026-04-26 21:16 | 50.06294 | -125.27435 | 8488 ft | 139 kts | 339° |
| 2026-04-26 21:16 | 50.07167 | -125.27989 | 8483 ft | 132 kts | 339° |
| 2026-04-26 21:16 | 50.08012 | -125.28521 | 8484 ft | 127 kts | 339° |
| 2026-04-26 21:16 | 50.08824 | -125.29030 | 8488 ft | 124 kts | 339° |
| 2026-04-26 21:17 | 50.09616 | -125.29526 | 8495 ft | 122 kts | 339° |
| 2026-04-26 21:17 | 50.10400 | -125.30016 | 8497 ft | 121 kts | 339° |
| 2026-04-26 21:17 | 50.11179 | -125.30505 | 8498 ft | 121 kts | 339° |
| 2026-04-26 21:17 | 50.11954 | -125.30993 | 8499 ft | 120 kts | 339° |
| 2026-04-26 21:18 | 50.12729 | -125.31480 | 8499 ft | 120 kts | 339° |
| 2026-04-26 21:18 | 50.13500 | -125.31966 | 8500 ft | 120 kts | 339° |
| 2026-04-26 21:18 | 50.14271 | -125.32452 | 8500 ft | 120 kts | 339° |
| 2026-04-26 21:18 | 50.15042 | -125.32939 | 8501 ft | 120 kts | 339° |
| 2026-04-26 21:19 | 50.15811 | -125.33424 | 8501 ft | 120 kts | 339° |
| 2026-04-26 21:19 | 50.16583 | -125.33912 | 8502 ft | 120 kts | 339° |
| 2026-04-26 21:19 | 50.17354 | -125.34399 | 8502 ft | 120 kts | 339° |
| 2026-04-26 21:19 | 50.18133 | -125.34892 | 8502 ft | 120 kts | 339° |
| 2026-04-26 21:20 | 50.18903 | -125.35378 | 8502 ft | 120 kts | 339° |
| 2026-04-26 21:20 | 50.19674 | -125.35866 | 8501 ft | 120 kts | 339° |
| 2026-04-26 21:20 | 50.20445 | -125.36354 | 8501 ft | 120 kts | 339° |
| 2026-04-26 21:20 | 50.21217 | -125.36842 | 8501 ft | 120 kts | 339° |
| 2026-04-26 21:21 | 50.21988 | -125.37330 | 8501 ft | 120 kts | 339° |
| 2026-04-26 21:21 | 50.22759 | -125.37818 | 8501 ft | 120 kts | 339° |
| 2026-04-26 21:21 | 50.23528 | -125.38305 | 8502 ft | 120 kts | 339° |
| 2026-04-26 21:21 | 50.24299 | -125.38793 | 8502 ft | 120 kts | 339° |
| 2026-04-26 21:22 | 50.25070 | -125.39282 | 8502 ft | 120 kts | 339° |
| 2026-04-26 21:22 | 50.25840 | -125.39770 | 8503 ft | 120 kts | 339° |
| 2026-04-26 21:22 | 50.26610 | -125.40258 | 8502 ft | 120 kts | 339° |
| 2026-04-26 21:23 | 50.28153 | -125.41235 | 8501 ft | 120 kts | 339° |
| 2026-04-26 21:23 | 50.28935 | -125.41731 | 8502 ft | 120 kts | 339° |
| 2026-04-26 21:23 | 50.29705 | -125.42218 | 8502 ft | 120 kts | 339° |
| 2026-04-26 21:23 | 50.30477 | -125.42705 | 8503 ft | 120 kts | 339° |
| 2026-04-26 21:24 | 50.31249 | -125.43192 | 8503 ft | 120 kts | 339° |
| 2026-04-26 21:24 | 50.32020 | -125.43676 | 8504 ft | 120 kts | 339° |
| 2026-04-26 21:24 | 50.32790 | -125.44164 | 8502 ft | 120 kts | 337° |
| 2026-04-26 21:24 | 50.33374 | -125.45078 | 8506 ft | 121 kts | 302° |
| 2026-04-26 21:25 | 50.33751 | -125.46256 | 8511 ft | 121 kts | 297° |
| 2026-04-26 21:25 | 50.34101 | -125.47458 | 8510 ft | 122 kts | 296° |
| 2026-04-26 21:25 | 50.34452 | -125.48664 | 8508 ft | 122 kts | 296° |
| 2026-04-26 21:25 | 50.34804 | -125.49871 | 8507 ft | 122 kts | 296° |
| 2026-04-26 21:26 | 50.35157 | -125.51080 | 8506 ft | 122 kts | 296° |
| 2026-04-26 21:26 | 50.35516 | -125.52304 | 8506 ft | 122 kts | 297° |
| 2026-04-26 21:26 | 50.35871 | -125.53515 | 8505 ft | 122 kts | 297° |
| 2026-04-26 21:26 | 50.36225 | -125.54722 | 8505 ft | 122 kts | 297° |
| 2026-04-26 21:27 | 50.36581 | -125.55930 | 8505 ft | 122 kts | 297° |
| 2026-04-26 21:27 | 50.36939 | -125.57136 | 8505 ft | 122 kts | 297° |
| 2026-04-26 21:27 | 50.37157 | -125.58426 | 8505 ft | 123 kts | 281° |
| 2026-04-26 21:27 | 50.37264 | -125.59757 | 8505 ft | 124 kts | 278° |
| 2026-04-26 21:28 | 50.37351 | -125.61096 | 8502 ft | 124 kts | 277° |
| 2026-04-26 21:28 | 50.37432 | -125.62437 | 8502 ft | 124 kts | 277° |
| 2026-04-26 21:28 | 50.37512 | -125.63779 | 8502 ft | 124 kts | 277° |
| 2026-04-26 21:28 | 50.37591 | -125.65117 | 8502 ft | 124 kts | 277° |
| 2026-04-26 21:29 | 50.37670 | -125.66460 | 8501 ft | 124 kts | 277° |
| 2026-04-26 21:29 | 50.37748 | -125.67802 | 8501 ft | 124 kts | 277° |
| 2026-04-26 21:29 | 50.37801 | -125.68709 | 8501 ft | 124 kts | 277° |
| 2026-04-26 21:29 | 50.37879 | -125.70050 | 8502 ft | 124 kts | 277° |
| 2026-04-26 21:30 | 50.37956 | -125.71391 | 8502 ft | 124 kts | 277° |
| 2026-04-26 21:30 | 50.38034 | -125.72733 | 8502 ft | 124 kts | 277° |
| 2026-04-26 21:30 | 50.38112 | -125.74073 | 8503 ft | 124 kts | 277° |
| 2026-04-26 21:30 | 50.38190 | -125.75414 | 8504 ft | 124 kts | 277° |
| 2026-04-26 21:31 | 50.38268 | -125.76756 | 8504 ft | 124 kts | 277° |
| 2026-04-26 21:31 | 50.38346 | -125.78099 | 8504 ft | 124 kts | 277° |
| 2026-04-26 21:31 | 50.38425 | -125.79441 | 8504 ft | 124 kts | 277° |
| 2026-04-26 21:31 | 50.38505 | -125.80783 | 8504 ft | 124 kts | 277° |
| 2026-04-26 21:32 | 50.38588 | -125.82142 | 8505 ft | 124 kts | 277° |
| 2026-04-26 21:32 | 50.38742 | -125.83460 | 8505 ft | 123 kts | 289° |
| 2026-04-26 21:32 | 50.39047 | -125.84705 | 8506 ft | 123 kts | 295° |
| 2026-04-26 21:32 | 50.39392 | -125.85924 | 8507 ft | 123 kts | 296° |
| 2026-04-26 21:33 | 50.39750 | -125.87133 | 8508 ft | 122 kts | 297° |
| 2026-04-26 21:33 | 50.40115 | -125.88336 | 8507 ft | 123 kts | 297° |
| 2026-04-26 21:33 | 50.40483 | -125.89542 | 8503 ft | 123 kts | 297° |
| 2026-04-26 21:33 | 50.40853 | -125.90749 | 8502 ft | 123 kts | 298° |
| 2026-04-26 21:34 | 50.41223 | -125.91954 | 8502 ft | 123 kts | 298° |
| 2026-04-26 21:34 | 50.41593 | -125.93157 | 8503 ft | 123 kts | 298° |
| 2026-04-26 21:34 | 50.41963 | -125.94360 | 8504 ft | 123 kts | 298° |
| 2026-04-26 21:34 | 50.42332 | -125.95562 | 8505 ft | 123 kts | 298° |
| 2026-04-26 21:35 | 50.42707 | -125.96783 | 8502 ft | 123 kts | 298° |
| 2026-04-26 21:35 | 50.43078 | -125.97989 | 8502 ft | 123 kts | 298° |
| 2026-04-26 21:35 | 50.43448 | -125.99194 | 8502 ft | 123 kts | 298° |
| 2026-04-26 21:35 | 50.43818 | -126.00398 | 8503 ft | 123 kts | 297° |
| 2026-04-26 21:36 | 50.44188 | -126.01601 | 8504 ft | 123 kts | 297° |
| 2026-04-26 21:36 | 50.44556 | -126.02804 | 8505 ft | 123 kts | 297° |
| 2026-04-26 21:36 | 50.44926 | -126.04007 | 8506 ft | 123 kts | 297° |
| 2026-04-26 21:36 | 50.45294 | -126.05207 | 8507 ft | 123 kts | 297° |
| 2026-04-26 21:37 | 50.45665 | -126.06411 | 8508 ft | 123 kts | 297° |
| 2026-04-26 21:37 | 50.46035 | -126.07613 | 8509 ft | 122 kts | 297° |
| 2026-04-26 21:37 | 50.46407 | -126.08815 | 8509 ft | 122 kts | 297° |
| 2026-04-26 21:37 | 50.46780 | -126.10011 | 8510 ft | 123 kts | 297° |
| 2026-04-26 21:38 | 50.47005 | -126.11299 | 8510 ft | 123 kts | 280° |
| 2026-04-26 21:38 | 50.47118 | -126.12647 | 8509 ft | 123 kts | 278° |
| 2026-04-26 21:38 | 50.47213 | -126.13984 | 8504 ft | 124 kts | 277° |
| 2026-04-26 21:38 | 50.47305 | -126.15327 | 8503 ft | 124 kts | 277° |
| 2026-04-26 21:39 | 50.47396 | -126.16665 | 8503 ft | 124 kts | 277° |
| 2026-04-26 21:39 | 50.47486 | -126.18001 | 8504 ft | 123 kts | 277° |
| 2026-04-26 21:39 | 50.47576 | -126.19340 | 8504 ft | 123 kts | 277° |
| 2026-04-26 21:39 | 50.47665 | -126.20679 | 8505 ft | 123 kts | 277° |
| 2026-04-26 21:40 | 50.47755 | -126.22014 | 8506 ft | 123 kts | 277° |
| 2026-04-26 21:40 | 50.47843 | -126.23349 | 8507 ft | 123 kts | 277° |
| 2026-04-26 21:40 | 50.47932 | -126.24687 | 8508 ft | 123 kts | 277° |
| 2026-04-26 21:40 | 50.48021 | -126.26022 | 8509 ft | 123 kts | 277° |
| 2026-04-26 21:41 | 50.48110 | -126.27359 | 8510 ft | 123 kts | 277° |
| 2026-04-26 21:41 | 50.48198 | -126.28696 | 8511 ft | 123 kts | 277° |
| 2026-04-26 21:41 | 50.48287 | -126.30051 | 8512 ft | 123 kts | 277° |
| 2026-04-26 21:41 | 50.48376 | -126.31387 | 8513 ft | 123 kts | 277° |
| 2026-04-26 21:42 | 50.48464 | -126.32725 | 8514 ft | 123 kts | 277° |
| 2026-04-26 21:42 | 50.48551 | -126.34058 | 8515 ft | 123 kts | 277° |
| 2026-04-26 21:42 | 50.48639 | -126.35398 | 8512 ft | 124 kts | 277° |
| 2026-04-26 21:42 | 50.48727 | -126.36743 | 8504 ft | 124 kts | 277° |
| 2026-04-26 21:43 | 50.48815 | -126.38087 | 8503 ft | 124 kts | 277° |
| 2026-04-26 21:43 | 50.48903 | -126.39432 | 8503 ft | 124 kts | 277° |
| 2026-04-26 21:43 | 50.48990 | -126.40775 | 8504 ft | 124 kts | 277° |
| 2026-04-26 21:43 | 50.49078 | -126.42116 | 8504 ft | 124 kts | 277° |
| 2026-04-26 21:44 | 50.49165 | -126.43454 | 8505 ft | 123 kts | 277° |
| 2026-04-26 21:44 | 50.49252 | -126.44793 | 8506 ft | 123 kts | 277° |
| 2026-04-26 21:44 | 50.49339 | -126.46132 | 8507 ft | 123 kts | 277° |
| 2026-04-26 21:44 | 50.49426 | -126.47471 | 8507 ft | 123 kts | 277° |
| 2026-04-26 21:45 | 50.49514 | -126.48810 | 8508 ft | 123 kts | 277° |
| 2026-04-26 21:45 | 50.49602 | -126.50167 | 8509 ft | 123 kts | 277° |
| 2026-04-26 21:45 | 50.49690 | -126.51506 | 8510 ft | 123 kts | 277° |
| 2026-04-26 21:45 | 50.49777 | -126.52844 | 8511 ft | 123 kts | 277° |
| 2026-04-26 21:46 | 50.49866 | -126.54184 | 8511 ft | 123 kts | 277° |
| 2026-04-26 21:46 | 50.49957 | -126.55522 | 8512 ft | 123 kts | 278° |
| 2026-04-26 21:46 | 50.50061 | -126.56858 | 8513 ft | 123 kts | 282° |
| 2026-04-26 21:46 | 50.50268 | -126.58158 | 8511 ft | 123 kts | 288° |
| 2026-04-26 21:47 | 50.50521 | -126.59441 | 8512 ft | 123 kts | 289° |
| 2026-04-26 21:47 | 50.50789 | -126.60715 | 8513 ft | 123 kts | 290° |
| 2026-04-26 21:47 | 50.51062 | -126.61984 | 8513 ft | 123 kts | 290° |
| 2026-04-26 21:47 | 50.51340 | -126.63252 | 8514 ft | 123 kts | 290° |
| 2026-04-26 21:48 | 50.51619 | -126.64525 | 8505 ft | 124 kts | 290° |
| 2026-04-26 21:48 | 50.51903 | -126.65814 | 8503 ft | 124 kts | 291° |
| 2026-04-26 21:48 | 50.52184 | -126.67088 | 8503 ft | 123 kts | 291° |
| 2026-04-26 21:48 | 50.52465 | -126.68360 | 8503 ft | 123 kts | 291° |
| 2026-04-26 21:49 | 50.52745 | -126.69630 | 8503 ft | 123 kts | 291° |
| 2026-04-26 21:49 | 50.53024 | -126.70898 | 8504 ft | 123 kts | 291° |
| 2026-04-26 21:49 | 50.53305 | -126.72169 | 8505 ft | 123 kts | 291° |
| 2026-04-26 21:49 | 50.53584 | -126.73436 | 8505 ft | 123 kts | 291° |
| 2026-04-26 21:50 | 50.53863 | -126.74707 | 8506 ft | 123 kts | 290° |
| 2026-04-26 21:50 | 50.54049 | -126.75548 | 8504 ft | 123 kts | 290° |
| 2026-04-26 21:50 | 50.54423 | -126.77251 | 8502 ft | 123 kts | 290° |
| 2026-04-26 21:50 | 50.54702 | -126.78522 | 8501 ft | 123 kts | 290° |
| 2026-04-26 21:51 | 50.54981 | -126.79791 | 8501 ft | 123 kts | 290° |
| 2026-04-26 21:51 | 50.55260 | -126.81062 | 8501 ft | 123 kts | 290° |
| 2026-04-26 21:51 | 50.55531 | -126.82295 | 8501 ft | 123 kts | 290° |
| 2026-04-26 21:51 | 50.55805 | -126.83548 | 8501 ft | 123 kts | 290° |
| 2026-04-26 21:52 | 50.56070 | -126.84755 | 8497 ft | 109 kts | 291° |
| 2026-04-26 21:52 | 50.56307 | -126.85811 | 8488 ft | 99 kts | 290° |
| 2026-04-26 21:52 | 50.56534 | -126.86819 | 8492 ft | 98 kts | 290° |
| 2026-04-26 21:52 | 50.56757 | -126.87826 | 8467 ft | 100 kts | 290° |
| 2026-04-26 21:53 | 50.56988 | -126.88883 | 8283 ft | 103 kts | 291° |
| 2026-04-26 21:53 | 50.57223 | -126.89956 | 8031 ft | 103 kts | 291° |
| 2026-04-26 21:53 | 50.57461 | -126.91044 | 7793 ft | 108 kts | 291° |
| 2026-04-26 21:53 | 50.57706 | -126.92172 | 7559 ft | 110 kts | 291° |
| 2026-04-26 21:54 | 50.57954 | -126.93315 | 7324 ft | 111 kts | 291° |
| 2026-04-26 21:54 | 50.58200 | -126.94441 | 7075 ft | 106 kts | 291° |
| 2026-04-26 21:54 | 50.58436 | -126.95520 | 6817 ft | 103 kts | 291° |
| 2026-04-26 21:54 | 50.58670 | -126.96579 | 6560 ft | 103 kts | 291° |
| 2026-04-26 21:55 | 50.58912 | -126.97682 | 6314 ft | 108 kts | 291° |
| 2026-04-26 21:55 | 50.59159 | -126.98819 | 6093 ft | 110 kts | 291° |
| 2026-04-26 21:55 | 50.59403 | -126.99932 | 5866 ft | 105 kts | 291° |
| 2026-04-26 21:55 | 50.59646 | -127.01029 | 5642 ft | 108 kts | 291° |
| 2026-04-26 21:56 | 50.59898 | -127.02173 | 5445 ft | 112 kts | 289° |
| 2026-04-26 21:56 | 50.60109 | -127.03293 | 5258 ft | 102 kts | 288° |
| 2026-04-26 21:56 | 50.60307 | -127.04344 | 5064 ft | 99 kts | 289° |
| 2026-04-26 21:56 | 50.60504 | -127.05375 | 4875 ft | 99 kts | 288° |
| 2026-04-26 21:57 | 50.60703 | -127.06425 | 4697 ft | 101 kts | 288° |
| 2026-04-26 21:57 | 50.60903 | -127.07488 | 4522 ft | 101 kts | 288° |
| 2026-04-26 21:57 | 50.61105 | -127.08552 | 4348 ft | 102 kts | 288° |
| 2026-04-26 21:57 | 50.61308 | -127.09632 | 4210 ft | 105 kts | 288° |
| 2026-04-26 21:58 | 50.61519 | -127.10756 | 4072 ft | 108 kts | 288° |
| 2026-04-26 21:58 | 50.61733 | -127.11898 | 3932 ft | 108 kts | 288° |
| 2026-04-26 21:58 | 50.61947 | -127.13036 | 3786 ft | 106 kts | 288° |
| 2026-04-26 21:58 | 50.62156 | -127.14143 | 3637 ft | 105 kts | 288° |
| 2026-04-26 21:59 | 50.62342 | -127.15232 | 3486 ft | 100 kts | 281° |
| 2026-04-26 21:59 | 50.62367 | -127.16314 | 3296 ft | 102 kts | 269° |
| 2026-04-26 21:59 | 50.62308 | -127.17436 | 3097 ft | 101 kts | 262° |
| 2026-04-26 21:59 | 50.62175 | -127.18494 | 2894 ft | 98 kts | 259° |
| 2026-04-26 22:00 | 50.62033 | -127.19522 | 2740 ft | 95 kts | 260° |
| 2026-04-26 22:00 | 50.61918 | -127.20530 | 2630 ft | 93 kts | 264° |
| 2026-04-26 22:00 | 50.61851 | -127.21541 | 2534 ft | 91 kts | 267° |
| 2026-04-26 22:00 | 50.61789 | -127.22510 | 2497 ft | 89 kts | 262° |
| 2026-04-26 22:01 | 50.61717 | -127.23506 | 2418 ft | 91 kts | 274° |
| 2026-04-26 22:01 | 50.61849 | -127.24444 | 2358 ft | 87 kts | 290° |
| 2026-04-26 22:01 | 50.62089 | -127.25347 | 2320 ft | 88 kts | 304° |
| 2026-04-26 22:01 | 50.62442 | -127.26128 | 2223 ft | 89 kts | 309° |
| 2026-04-26 22:02 | 50.62835 | -127.26892 | 2088 ft | 92 kts | 313° |
| 2026-04-26 22:02 | 50.63117 | -127.27390 | 1996 ft | 92 kts | 315° |
| 2026-04-26 22:02 | 50.63682 | -127.28380 | 1767 ft | 89 kts | 315° |
| 2026-04-26 22:02 | 50.64120 | -127.29067 | 1527 ft | 90 kts | 319° |
| 2026-04-26 22:03 | 50.64518 | -127.29798 | 1350 ft | 86 kts | 313° |
| 2026-04-26 22:03 | 50.64897 | -127.30522 | 1165 ft | 86 kts | 315° |
| 2026-04-26 22:03 | 50.65291 | -127.31215 | 1022 ft | 84 kts | 314° |
| 2026-04-26 22:03 | 50.65657 | -127.31923 | 854 ft | 83 kts | 314° |
| 2026-04-26 22:04 | 50.66022 | -127.32608 | 693 ft | 80 kts | 315° |
| 2026-04-26 22:04 | 50.66371 | -127.33274 | 527 ft | 78 kts | 315° |
| 2026-04-26 22:04 | 50.66720 | -127.33906 | 392 ft | 75 kts | 316° |
| 2026-04-26 22:04 | 50.67049 | -127.34522 | 304 ft | 72 kts | 315° |
| 2026-04-26 22:05 | 50.67384 | -127.35140 | 196 ft | 76 kts | 314° |
| 2026-04-26 22:05 | 50.67715 | -127.35760 | 99 ft | 70 kts | 311° |
| 2026-04-26 22:05 | 50.67992 | -127.36286 | 75 ft | 54 kts | 312° |
| 2026-04-26 22:05 | 50.68201 | -127.36678 | 75 ft | 39 kts | 311° |
| 2026-04-26 22:06 | 50.68344 | -127.36955 | 75 ft | 28 kts | 310° |
| 2026-04-26 22:06 | 50.68451 | -127.37155 | 75 ft | 18 kts | 308° |
| 2026-04-26 22:06 | 50.68500 | -127.37292 | 75 ft | 13 kts | 239° |
| 2026-04-26 22:06 | 50.68401 | -127.37397 | 75 ft | 18 kts | 198° |
| 2026-04-26 22:07 | 50.68292 | -127.37458 | 75 ft | 12 kts | 201° |
| 2026-04-26 22:07 | 50.68272 | -127.37514 | 75 ft | 0 kts | 278° |